Hauptseite
METAR-TAF:

METAR-TAF

Flughäfen :

Ingolstadt, Deutschland

Fliegerhorst Ingolstadt/Manching

Breite: 48-43N, Länge: 011-32E, Höhe: 367 m

Beobachtung

Neuester Wetterbericht von vor 30 Minuten, um 13:20 UTC
Wind 16 kt aus Ost/Nordost
Temperatur 0°C
Luftfeuchtigkeit 43%
Luftdruck 1019 hPa

METAR: ETSI 241320Z AUTO 06016KT //// // ////// 00/M11 Q1019 ///

Zeit: 14:50 (13:50 UTC)

Prognose

Neuester Wetterbericht von vor 26 Stunden und 35 Minuten, um 11:15 UTC
Gültige Prognose vom 23 um 12 UTC bis 23 um 21 UTC
Wind 12 kt aus Ost/Nordost
Sichtweite: 1320 m
Leicht bewölkt in der Höhe von 2000 ft
Durchbrochene Bewölkung in der Höhe von 3000 ft

TAF: ETSI 231115Z 2312/2321 07012KT 9999 NSW FEW020 BKN030 CANCEL 1320

Wetterbeobachtungen und Prognosen von mehr als 4000 Flughäfen (METAR und TAF Bericht).

Die verfügbaren Stationen werden durch gelbe und rote Markierungen auf der Karte dargestellt.

Führen Sie die Maus auf sie, um den Namen der Station zu sehen.

Darauf klicken, um die Beobachtung von Wetterbeobachtungen und Prognosen zu sehen.

Um die Karte zu ändern : klicken Sie auf den grünen Tasten mit einem schwarzen Kreuz Zum Vergrößern, auf den grünen Button mit einem Gedankenstrich zu verkleinern, oder auf die grünen Pfeile für benachbarte Karten.


METAR-TAF: